Time;durP1;ratioP1;P1;durP2;ratioP2;P2;SDS_P1;SDS_P2;PMS_P1;PMS_P2;Temp;Humidity;BMP_temperature;BMP_pressure;BME280_temperature;BME280_humidity;BME280_pressure;Samples;Min_cycle;Max_cycle;Signal;HPM_P1;HPM_P2
2022/06/10 00:02:00;;;;;;;;;;;21.70;49.90;;;;;;5073267;28;19953;-63
2022/06/10 00:04:27;;;;;;;;;;;21.70;49.90;;;;;;5090355;28;19931;-63
2022/06/10 00:06:58;;;;;;;;;;;21.70;49.90;;;;;;5093839;28;19928;-63
2022/06/10 00:09:25;;;;;;;;;;;21.70;49.90;;;;;;5084624;28;19931;-61
2022/06/10 00:11:51;;;;;;;;;;;21.70;49.80;;;;;;5092852;28;20441;-61
2022/06/10 00:14:18;;;;;;;;;;;21.70;49.80;;;;;;5082078;28;19959;-61
2022/06/10 00:16:45;;;;;;;;;;;21.70;49.80;;;;;;5082786;28;19954;-60
2022/06/10 00:19:12;;;;;;;;;;;21.70;49.80;;;;;;5089115;28;19924;-63
2022/06/10 00:21:39;;;;;;;;;;;21.70;49.80;;;;;;5089918;28;19923;-62
2022/06/10 00:24:08;;;;;;;;;;;21.70;49.80;;;;;;5090387;28;19955;-62
2022/06/10 00:26:35;;;;;;;;;;;21.60;49.70;;;;;;5087354;28;19967;-62
2022/06/10 00:29:02;;;;;;;;;;;21.70;49.80;;;;;;5092421;28;20305;-62
2022/06/10 00:31:28;;;;;;;;;;;21.70;49.80;;;;;;5090587;28;20316;-62
2022/06/10 00:33:55;;;;;;;;;;;21.70;49.70;;;;;;5086060;28;19924;-62
2022/06/10 00:36:22;;;;;;;;;;;21.70;49.80;;;;;;5076260;28;19978;-62
2022/06/10 00:38:49;;;;;;;;;;;21.60;49.60;;;;;;5078946;28;20004;-62
2022/06/10 00:41:17;;;;;;;;;;;21.70;49.70;;;;;;5093874;28;19928;-63
2022/06/10 00:43:44;;;;;;;;;;;21.60;49.60;;;;;;5095753;28;19983;-62
2022/06/10 00:46:25;;;;;;;;;;;21.60;49.60;;;;;;5084376;28;19929;-62
2022/06/10 00:48:54;;;;;;;;;;;21.70;49.60;;;;;;5087749;28;19975;-62
2022/06/10 00:51:22;;;;;;;;;;;21.70;49.60;;;;;;5090022;28;19931;-61
2022/06/10 00:53:50;;;;;;;;;;;21.60;50.10;;;;;;5089795;28;20499;-62
2022/06/10 00:56:19;;;;;;;;;;;21.60;49.60;;;;;;5087968;28;20430;-63
2022/06/10 00:58:47;;;;;;;;;;;21.60;49.50;;;;;;5084202;28;20416;-61
2022/06/10 01:01:14;;;;;;;;;;;21.60;49.50;;;;;;5086816;28;20351;-61
2022/06/10 01:03:42;;;;;;;;;;;21.60;49.50;;;;;;5088191;28;19924;-62
2022/06/10 01:06:09;;;;;;;;;;;21.60;49.50;;;;;;5098655;28;20298;-62
2022/06/10 01:08:36;;;;;;;;;;;21.60;49.50;;;;;;5081840;28;19978;-62
2022/06/10 01:11:06;;;;;;;;;;;21.60;49.40;;;;;;5092704;28;20381;-62
2022/06/10 01:13:36;;;;;;;;;;;21.60;49.40;;;;;;5086120;28;19935;-62
2022/06/10 01:16:05;;;;;;;;;;;21.60;49.40;;;;;;5073124;28;19924;-62
2022/06/10 01:18:35;;;;;;;;;;;21.60;49.40;;;;;;5082213;28;19935;-62
2022/06/10 01:21:08;;;;;;;;;;;21.60;49.40;;;;;;5085901;28;20266;-62
2022/06/10 01:23:46;;;;;;;;;;;21.60;49.40;;;;;;5084648;28;19928;-62
2022/06/10 01:26:28;;;;;;;;;;;21.60;49.40;;;;;;5080037;28;19977;-62
2022/06/10 01:29:02;;;;;;;;;;;21.60;49.30;;;;;;5085851;28;19928;-62
2022/06/10 01:31:30;;;;;;;;;;;21.60;49.30;;;;;;5086785;28;20392;-62
2022/06/10 01:34:04;;;;;;;;;;;21.60;49.30;;;;;;5081844;28;19931;-63
2022/06/10 01:36:33;;;;;;;;;;;21.60;49.30;;;;;;5083401;28;19924;-63
2022/06/10 01:39:03;;;;;;;;;;;21.60;49.30;;;;;;5086725;28;20285;-62
2022/06/10 01:41:31;;;;;;;;;;;21.60;49.30;;;;;;5085452;28;19924;-63
2022/06/10 01:43:58;;;;;;;;;;;21.60;49.20;;;;;;5090239;28;19924;-62
2022/06/10 01:46:27;;;;;;;;;;;21.60;49.20;;;;;;5084349;28;19931;-62
2022/06/10 01:48:57;;;;;;;;;;;21.60;49.20;;;;;;5090159;28;20389;-61
2022/06/10 01:51:25;;;;;;;;;;;21.60;49.20;;;;;;5084888;28;19928;-65
2022/06/10 01:53:54;;;;;;;;;;;21.60;49.10;;;;;;5078857;28;20012;-68
2022/06/10 01:56:22;;;;;;;;;;;21.60;49.20;;;;;;5089396;28;20066;-65
2022/06/10 01:58:50;;;;;;;;;;;21.60;49.20;;;;;;5085719;28;20405;-57
2022/06/10 02:01:18;;;;;;;;;;;21.60;49.20;;;;;;5082422;28;19993;-66
2022/06/10 02:04:06;;;;;;;;;;;21.60;49.20;;;;;;5082659;28;20392;-64
2022/06/10 02:06:42;;;;;;;;;;;21.60;49.20;;;;;;5082336;28;20023;-65
2022/06/10 02:09:10;;;;;;;;;;;21.60;49.20;;;;;;5093130;28;19924;-65
2022/06/10 02:11:37;;;;;;;;;;;21.60;49.20;;;;;;5083316;28;19924;-65
2022/06/10 02:14:07;;;;;;;;;;;21.60;49.20;;;;;;5089936;28;19951;-66
2022/06/10 02:16:36;;;;;;;;;;;21.60;49.20;;;;;;5089864;28;19932;-65
2022/06/10 02:19:05;;;;;;;;;;;21.60;49.20;;;;;;5081193;28;19925;-64
2022/06/10 02:21:32;;;;;;;;;;;21.60;49.10;;;;;;5079213;28;20011;-63
2022/06/10 02:24:00;;;;;;;;;;;21.70;49.20;;;;;;5075089;28;19948;-64
2022/06/10 02:26:27;;;;;;;;;;;21.70;49.20;;;;;;5094610;28;20014;-66
2022/06/10 02:28:54;;;;;;;;;;;21.60;49.00;;;;;;5075346;28;19932;-65
2022/06/10 02:31:22;;;;;;;;;;;21.70;49.10;;;;;;5081257;28;19928;-64
2022/06/10 02:33:49;;;;;;;;;;;21.60;49.10;;;;;;5086051;28;19928;-64
2022/06/10 02:36:19;;;;;;;;;;;21.70;49.10;;;;;;5076020;28;19934;-65
2022/06/10 02:38:48;;;;;;;;;;;21.60;49.00;;;;;;5084958;28;19932;-65
2022/06/10 02:41:16;;;;;;;;;;;21.70;49.10;;;;;;5088142;28;20022;-65
2022/06/10 02:43:45;;;;;;;;;;;21.60;49.00;;;;;;5080670;28;20677;-65
2022/06/10 02:46:12;;;;;;;;;;;21.70;49.00;;;;;;5079729;28;19989;-65
2022/06/10 02:48:40;;;;;;;;;;;21.60;49.00;;;;;;5084126;28;19933;-65
2022/06/10 02:51:07;;;;;;;;;;;21.70;49.00;;;;;;5086737;28;19924;-65
2022/06/10 02:53:35;;;;;;;;;;;21.60;49.00;;;;;;5084617;28;19928;-64
2022/06/10 02:56:02;;;;;;;;;;;21.70;49.00;;;;;;5085429;28;19947;-66
2022/06/10 03:01:20;;;;;;;;;;;21.60;48.90;;;;;;5081411;28;19925;-60
2022/06/10 03:03:59;;;;;;;;;;;21.70;49.00;;;;;;5081951;28;19924;-61
2022/06/10 03:06:27;;;;;;;;;;;21.70;49.00;;;;;;5085241;28;19964;-60
2022/06/10 03:08:56;;;;;;;;;;;21.70;48.90;;;;;;5067319;28;19925;-61
2022/06/10 03:11:26;;;;;;;;;;;21.60;48.90;;;;;;5082319;28;19931;-60
2022/06/10 03:13:57;;;;;;;;;;;21.70;48.90;;;;;;5088700;28;20315;-60
2022/06/10 03:16:28;;;;;;;;;;;21.60;48.80;;;;;;5089378;28;19960;-61
2022/06/10 03:19:00;;;;;;;;;;;21.70;48.80;;;;;;5089607;28;19932;-60
2022/06/10 03:21:27;;;;;;;;;;;21.60;48.70;;;;;;5081275;28;19928;-60
2022/06/10 03:23:58;;;;;;;;;;;21.70;48.70;;;;;;5091744;28;20369;-60
2022/06/10 03:26:26;;;;;;;;;;;21.60;48.60;;;;;;5081053;28;20058;-61
2022/06/10 03:28:56;;;;;;;;;;;21.60;48.60;;;;;;5083165;28;19963;-61
2022/06/10 03:31:25;;;;;;;;;;;21.60;48.60;;;;;;5091548;28;19967;-60
2022/06/10 03:33:53;;;;;;;;;;;21.60;48.60;;;;;;5075282;28;20337;-60
2022/06/10 03:36:20;;;;;;;;;;;21.60;48.60;;;;;;5096276;28;19947;-60
2022/06/10 03:38:47;;;;;;;;;;;21.60;48.60;;;;;;5095335;28;20488;-60
2022/06/10 03:41:20;;;;;;;;;;;21.60;48.50;;;;;;5083306;28;20037;-60
2022/06/10 03:43:47;;;;;;;;;;;21.60;48.50;;;;;;5086082;28;20288;-60
2022/06/10 03:46:19;;;;;;;;;;;21.60;48.40;;;;;;5096588;28;20004;-61
2022/06/10 03:48:47;;;;;;;;;;;21.60;48.40;;;;;;5096908;28;20022;-60
2022/06/10 03:51:13;;;;;;;;;;;21.60;48.40;;;;;;5084674;28;19925;-60
2022/06/10 03:53:41;;;;;;;;;;;21.60;48.40;;;;;;5096310;28;19963;-61
2022/06/10 03:56:08;;;;;;;;;;;21.60;48.40;;;;;;5078730;28;20428;-61
2022/06/10 03:58:36;;;;;;;;;;;21.60;48.40;;;;;;5076179;28;19924;-60
2022/06/10 04:01:03;;;;;;;;;;;21.60;48.40;;;;;;5084821;28;19931;-61
2022/06/10 04:03:30;;;;;;;;;;;21.60;48.40;;;;;;5092973;28;19928;-61
2022/06/10 04:05:56;;;;;;;;;;;21.60;48.40;;;;;;5083252;28;19933;-61
2022/06/10 04:08:23;;;;;;;;;;;21.60;48.40;;;;;;5093940;28;19924;-61
2022/06/10 04:10:50;;;;;;;;;;;21.60;48.40;;;;;;5092114;28;20464;-62
2022/06/10 04:13:19;;;;;;;;;;;21.60;49.00;;;;;;5081604;28;19962;-61
2022/06/10 04:15:47;;;;;;;;;;;21.60;48.40;;;;;;5099041;28;19964;-62
2022/06/10 04:18:14;;;;;;;;;;;21.60;48.40;;;;;;5090177;28;19928;-62
2022/06/10 04:20:41;;;;;;;;;;;21.50;48.30;;;;;;5086016;28;19928;-62
2022/06/10 04:23:08;;;;;;;;;;;21.60;48.40;;;;;;5089384;28;19924;-62
2022/06/10 04:25:36;;;;;;;;;;;21.60;48.40;;;;;;5080891;28;19985;-62
2022/06/10 04:28:03;;;;;;;;;;;21.50;48.40;;;;;;5092734;28;19924;-62
2022/06/10 04:30:32;;;;;;;;;;;21.50;48.40;;;;;;5082255;28;19925;-62
2022/06/10 04:33:00;;;;;;;;;;;21.50;48.50;;;;;;5091426;28;19924;-62
2022/06/10 04:35:27;;;;;;;;;;;21.50;48.50;;;;;;5092480;28;19928;-62
2022/06/10 04:37:55;;;;;;;;;;;21.50;48.60;;;;;;5089464;28;19972;-62
2022/06/10 04:40:23;;;;;;;;;;;21.50;48.60;;;;;;5092434;28;19935;-62
2022/06/10 04:42:50;;;;;;;;;;;21.50;48.70;;;;;;5083304;28;19924;-62
2022/06/10 04:45:18;;;;;;;;;;;21.50;48.70;;;;;;5086979;28;19928;-62
2022/06/10 04:47:45;;;;;;;;;;;21.50;48.80;;;;;;5091835;28;19991;-65
2022/06/10 04:50:14;;;;;;;;;;;21.50;48.80;;;;;;5090924;28;19924;-62
2022/06/10 04:52:41;;;;;;;;;;;21.50;48.80;;;;;;5085020;28;19925;-62
2022/06/10 04:55:08;;;;;;;;;;;21.50;48.80;;;;;;5091607;28;20305;-61
2022/06/10 04:57:35;;;;;;;;;;;21.50;48.80;;;;;;5092810;28;20315;-62
2022/06/10 05:00:02;;;;;;;;;;;21.50;48.80;;;;;;5088331;28;19928;-61
2022/06/10 05:02:29;;;;;;;;;;;21.50;48.90;;;;;;5084712;28;20346;-62
2022/06/10 05:05:00;;;;;;;;;;;21.50;48.90;;;;;;5092443;28;20381;-62
2022/06/10 05:07:28;;;;;;;;;;;21.50;48.90;;;;;;5080354;28;19959;-62
2022/06/10 05:09:56;;;;;;;;;;;21.50;48.90;;;;;;5088468;28;20031;-62
2022/06/10 05:12:23;;;;;;;;;;;21.50;48.90;;;;;;5079015;28;19931;-62
2022/06/10 05:14:49;;;;;;;;;;;21.50;48.90;;;;;;5092250;28;20343;-61
2022/06/10 05:17:16;;;;;;;;;;;21.50;48.90;;;;;;5093075;28;19986;-62
2022/06/10 05:19:46;;;;;;;;;;;21.50;49.50;;;;;;5077521;28;19958;-62
2022/06/10 05:22:13;;;;;;;;;;;21.50;48.90;;;;;;5091577;28;19932;-62
2022/06/10 05:24:42;;;;;;;;;;;21.50;48.90;;;;;;5091597;28;20360;-61
2022/06/10 05:27:08;;;;;;;;;;;21.50;48.90;;;;;;5083345;28;19943;-61
2022/06/10 05:29:35;;;;;;;;;;;21.50;48.90;;;;;;5088510;28;19931;-61
2022/06/10 05:32:02;;;;;;;;;;;21.50;48.90;;;;;;5088288;28;19931;-62
2022/06/10 05:34:47;;;;;;;;;;;21.50;48.90;;;;;;5073061;28;19928;-61
2022/06/10 05:37:14;;;;;;;;;;;21.50;48.90;;;;;;5087093;28;20014;-61
2022/06/10 05:39:42;;;;;;;;;;;21.50;48.90;;;;;;5101601;28;19927;-62
2022/06/10 05:42:09;;;;;;;;;;;21.50;48.90;;;;;;5082788;28;19928;-61
2022/06/10 05:44:37;;;;;;;;;;;21.50;48.80;;;;;;5087890;28;19989;-60
2022/06/10 05:47:06;;;;;;;;;;;21.50;48.80;;;;;;5089928;28;20255;-60
2022/06/10 05:49:33;;;;;;;;;;;21.50;48.80;;;;;;5081444;28;19924;-60
2022/06/10 05:52:00;;;;;;;;;;;21.50;48.70;;;;;;5087749;28;19971;-60
2022/06/10 05:54:27;;;;;;;;;;;21.50;48.70;;;;;;5091164;28;19928;-60
2022/06/10 05:56:55;;;;;;;;;;;21.50;48.70;;;;;;5086544;28;19924;-60
2022/06/10 05:59:22;;;;;;;;;;;21.50;48.60;;;;;;5085869;28;19924;-59
2022/06/10 06:01:49;;;;;;;;;;;21.50;48.60;;;;;;5100125;28;20347;-59
2022/06/10 06:04:16;;;;;;;;;;;21.50;48.60;;;;;;5090316;28;19928;-59
2022/06/10 06:06:43;;;;;;;;;;;21.50;48.50;;;;;;5090444;28;19955;-60
2022/06/10 06:09:11;;;;;;;;;;;21.50;48.50;;;;;;5084783;28;19924;-60
2022/06/10 06:11:38;;;;;;;;;;;21.50;48.50;;;;;;5075141;28;20098;-62
2022/06/10 06:14:06;;;;;;;;;;;21.50;48.40;;;;;;5082292;28;19924;-62
2022/06/10 06:16:32;;;;;;;;;;;21.50;48.40;;;;;;5085493;28;19950;-62
2022/06/10 06:18:59;;;;;;;;;;;21.50;48.40;;;;;;5087466;28;19924;-62
2022/06/10 06:21:26;;;;;;;;;;;21.50;48.30;;;;;;5081398;28;19924;-62
2022/06/10 06:23:53;;;;;;;;;;;21.40;48.20;;;;;;5070526;28;20333;-62
2022/06/10 06:26:20;;;;;;;;;;;21.40;48.10;;;;;;5104016;28;19978;-60
2022/06/10 06:28:47;;;;;;;;;;;21.40;48.10;;;;;;5080261;28;19974;-59
2022/06/10 06:31:15;;;;;;;;;;;21.40;48.10;;;;;;5089956;28;19959;-62
2022/06/10 06:33:42;;;;;;;;;;;21.50;48.10;;;;;;5091578;28;20023;-62
2022/06/10 06:36:09;;;;;;;;;;;21.40;48.00;;;;;;5106863;28;20033;-64
2022/06/10 06:38:36;;;;;;;;;;;21.40;48.00;;;;;;5081983;28;19924;-62
2022/06/10 06:41:03;;;;;;;;;;;21.40;48.00;;;;;;5077804;28;19924;-62
2022/06/10 06:43:29;;;;;;;;;;;21.40;48.00;;;;;;5090445;28;20347;-63
2022/06/10 06:45:56;;;;;;;;;;;21.40;48.00;;;;;;5090564;28;19928;-62
2022/06/10 06:48:24;;;;;;;;;;;21.40;48.00;;;;;;5089056;28;19924;-62
2022/06/10 06:50:51;;;;;;;;;;;21.40;47.90;;;;;;5086291;28;20010;-62
2022/06/10 06:53:18;;;;;;;;;;;21.50;48.00;;;;;;5095517;28;20607;-62
2022/06/10 06:55:45;;;;;;;;;;;21.50;48.00;;;;;;5097900;28;19969;-64
2022/06/10 06:58:13;;;;;;;;;;;21.40;47.90;;;;;;5094978;28;19940;-62
2022/06/10 07:00:40;;;;;;;;;;;21.40;47.90;;;;;;5094473;28;20045;-62
2022/06/10 07:03:07;;;;;;;;;;;21.50;47.90;;;;;;5087702;28;20249;-65
2022/06/10 07:05:36;;;;;;;;;;;21.50;47.90;;;;;;5084127;28;19924;-66
2022/06/10 07:08:03;;;;;;;;;;;21.50;47.90;;;;;;5087779;28;19928;-66
2022/06/10 07:10:29;;;;;;;;;;;21.40;47.80;;;;;;5093828;28;20214;-66
2022/06/10 07:12:56;;;;;;;;;;;21.50;47.90;;;;;;5094200;28;19924;-65
2022/06/10 07:15:23;;;;;;;;;;;21.50;47.80;;;;;;5089792;28;19940;-66
2022/06/10 07:17:50;;;;;;;;;;;21.50;47.90;;;;;;5090367;28;19938;-65
2022/06/10 07:20:19;;;;;;;;;;;21.50;47.80;;;;;;5090076;28;19963;-66
2022/06/10 07:22:47;;;;;;;;;;;21.50;47.80;;;;;;5082579;28;19962;-66
2022/06/10 07:25:15;;;;;;;;;;;21.50;47.90;;;;;;5095193;28;20326;-65
2022/06/10 07:27:42;;;;;;;;;;;21.50;47.90;;;;;;5088881;28;19924;-66
2022/06/10 07:30:10;;;;;;;;;;;21.50;47.90;;;;;;5090234;28;19989;-65
2022/06/10 07:32:36;;;;;;;;;;;21.50;47.90;;;;;;5080326;28;19960;-66
2022/06/10 07:35:03;;;;;;;;;;;21.50;47.90;;;;;;5095768;28;19990;-66
2022/06/10 07:37:30;;;;;;;;;;;21.50;47.90;;;;;;5089662;28;19963;-66
2022/06/10 07:39:58;;;;;;;;;;;21.60;48.00;;;;;;5088248;28;19935;-66
2022/06/10 07:42:24;;;;;;;;;;;21.60;47.90;;;;;;5098041;28;19928;-67
2022/06/10 07:44:51;;;;;;;;;;;21.60;47.90;;;;;;5077344;28;19932;-66
2022/06/10 07:47:18;;;;;;;;;;;21.60;47.90;;;;;;5088392;28;19925;-66
2022/06/10 07:49:45;;;;;;;;;;;21.60;47.90;;;;;;5090328;28;20358;-66
2022/06/10 07:52:12;;;;;;;;;;;21.60;47.80;;;;;;5082666;28;19928;-60
2022/06/10 07:54:39;;;;;;;;;;;21.60;47.80;;;;;;5094827;28;19935;-67
2022/06/10 07:57:07;;;;;;;;;;;21.60;47.80;;;;;;5094955;28;19994;-65
2022/06/10 07:59:34;;;;;;;;;;;21.60;47.80;;;;;;5090123;28;20072;-63
2022/06/10 08:02:01;;;;;;;;;;;21.60;47.70;;;;;;5102263;28;19927;-63
2022/06/10 08:04:28;;;;;;;;;;;21.60;47.70;;;;;;5088270;28;19974;-64
2022/06/10 08:06:55;;;;;;;;;;;21.60;47.70;;;;;;5080095;28;19925;-64
2022/06/10 08:09:23;;;;;;;;;;;21.60;47.70;;;;;;5089883;28;19968;-64
2022/06/10 08:11:50;;;;;;;;;;;21.60;47.70;;;;;;5090494;28;19959;-63
2022/06/10 08:14:18;;;;;;;;;;;21.60;47.60;;;;;;5093527;28;19932;-63
2022/06/10 08:16:46;;;;;;;;;;;21.60;47.70;;;;;;5091802;28;19924;-67
2022/06/10 08:19:13;;;;;;;;;;;21.70;47.70;;;;;;5087558;28;19936;-64
2022/06/10 08:24:24;;;;;;;;;;;21.70;47.70;;;;;;5085013;28;20306;-63
2022/06/10 08:26:51;;;;;;;;;;;21.70;47.60;;;;;;5092409;28;20337;-64
2022/06/10 08:29:20;;;;;;;;;;;21.70;47.50;;;;;;5098397;28;19924;-64
2022/06/10 08:31:47;;;;;;;;;;;21.70;47.60;;;;;;5094004;28;19932;-67
2022/06/10 08:34:14;;;;;;;;;;;21.70;47.50;;;;;;5092818;28;19947;-68
2022/06/10 08:36:41;;;;;;;;;;;21.70;47.50;;;;;;5090106;28;19939;-65
2022/06/10 08:39:08;;;;;;;;;;;21.70;47.50;;;;;;5084245;28;20452;-66
2022/06/10 08:41:39;;;;;;;;;;;21.70;47.50;;;;;;5097281;28;19924;-66
2022/06/10 08:44:11;;;;;;;;;;;21.70;47.40;;;;;;5101073;28;19985;-66
2022/06/10 08:46:53;;;;;;;;;;;21.70;47.40;;;;;;5075763;28;20328;-65
2022/06/10 08:49:39;;;;;;;;;;;21.70;47.40;;;;;;5090036;28;19968;-65
2022/06/10 08:52:07;;;;;;;;;;;21.70;47.30;;;;;;5081846;28;20376;-66
2022/06/10 08:54:35;;;;;;;;;;;21.70;47.30;;;;;;5093442;28;19924;-65
2022/06/10 08:57:03;;;;;;;;;;;21.70;47.30;;;;;;5090192;28;20384;-65
2022/06/10 08:59:35;;;;;;;;;;;21.70;47.20;;;;;;5088479;28;20201;-64
2022/06/10 09:02:05;;;;;;;;;;;21.70;47.20;;;;;;5086488;28;19931;-65
2022/06/10 09:04:38;;;;;;;;;;;21.70;47.20;;;;;;5088513;28;19931;-65
2022/06/10 09:07:09;;;;;;;;;;;21.80;47.30;;;;;;5087180;28;20006;-65
2022/06/10 09:09:35;;;;;;;;;;;21.80;47.30;;;;;;5089873;28;20023;-65
2022/06/10 09:12:04;;;;;;;;;;;21.80;47.30;;;;;;5091970;28;19931;-64
2022/06/10 09:14:31;;;;;;;;;;;21.70;47.10;;;;;;5085966;28;19928;-65
2022/06/10 09:16:59;;;;;;;;;;;21.70;47.20;;;;;;5066632;28;20032;-66
2022/06/10 09:19:27;;;;;;;;;;;21.80;47.20;;;;;;5077992;28;20404;-65
2022/06/10 09:21:57;;;;;;;;;;;21.80;47.20;;;;;;5091493;28;19989;-61
2022/06/10 09:24:25;;;;;;;;;;;21.80;47.20;;;;;;5091468;28;19928;-61
2022/06/10 09:26:54;;;;;;;;;;;21.80;47.20;;;;;;5081257;28;20035;-61
2022/06/10 09:29:21;;;;;;;;;;;21.80;47.20;;;;;;5087561;28;20026;-65
2022/06/10 09:31:49;;;;;;;;;;;21.80;47.20;;;;;;5088794;28;19924;-65
2022/06/10 09:34:22;;;;;;;;;;;21.80;47.20;;;;;;5089473;28;19924;-65
2022/06/10 09:36:51;;;;;;;;;;;21.80;47.10;;;;;;5081918;28;19927;-64
2022/06/10 09:42:08;;;;;;;;;;;21.80;47.00;;;;;;5090812;28;20387;-64
2022/06/10 09:44:35;;;;;;;;;;;21.80;47.00;;;;;;5085322;28;19924;-67
2022/06/10 09:47:10;;;;;;;;;;;21.80;46.90;;;;;;5079663;28;19928;-66
2022/06/10 09:49:44;;;;;;;;;;;21.80;46.90;;;;;;5087009;28;20408;-65
2022/06/10 09:52:15;;;;;;;;;;;21.80;46.90;;;;;;5087551;28;20399;-65
2022/06/10 09:54:49;;;;;;;;;;;21.90;47.00;;;;;;5092256;28;20408;-64
2022/06/10 09:57:19;;;;;;;;;;;21.90;46.90;;;;;;5084482;28;19924;-65
2022/06/10 09:59:47;;;;;;;;;;;21.80;46.80;;;;;;5085006;28;19931;-65
2022/06/10 10:02:28;;;;;;;;;;;21.80;46.70;;;;;;5091859;28;19925;-64
2022/06/10 10:05:07;;;;;;;;;;;21.90;46.80;;;;;;5084920;28;20008;-64
2022/06/10 10:07:37;;;;;;;;;;;21.90;46.80;;;;;;5090471;28;20372;-64
2022/06/10 10:10:12;;;;;;;;;;;21.80;46.70;;;;;;5088131;28;20427;-65
2022/06/10 10:12:41;;;;;;;;;;;21.90;46.80;;;;;;5077612;28;19928;-65
2022/06/10 10:15:10;;;;;;;;;;;21.90;46.80;;;;;;5086482;28;19963;-64
2022/06/10 10:17:41;;;;;;;;;;;21.90;46.80;;;;;;5089187;28;20369;-66
2022/06/10 10:20:10;;;;;;;;;;;21.90;46.80;;;;;;5077765;28;19932;-65
2022/06/10 10:22:45;;;;;;;;;;;21.90;46.80;;;;;;5088685;28;19932;-61
2022/06/10 10:25:14;;;;;;;;;;;21.90;46.80;;;;;;5084279;28;19928;-65
2022/06/10 10:27:40;;;;;;;;;;;21.90;46.70;;;;;;5094067;28;19985;-66
2022/06/10 10:30:14;;;;;;;;;;;21.90;46.80;;;;;;5084888;28;19924;-64
2022/06/10 10:32:41;;;;;;;;;;;21.90;46.80;;;;;;5083551;28;19924;-64
2022/06/10 10:35:16;;;;;;;;;;;21.90;46.80;;;;;;5083326;28;19944;-65
2022/06/10 10:37:43;;;;;;;;;;;21.90;46.80;;;;;;5085407;28;20024;-66
2022/06/10 10:40:18;;;;;;;;;;;21.90;46.80;;;;;;5092131;28;20424;-64
2022/06/10 10:42:46;;;;;;;;;;;21.90;46.80;;;;;;5089445;28;20389;-65
2022/06/10 10:45:16;;;;;;;;;;;21.90;46.70;;;;;;5095689;28;20372;-64
2022/06/10 10:47:48;;;;;;;;;;;22.00;46.80;;;;;;5088409;28;19967;-66
2022/06/10 10:50:17;;;;;;;;;;;21.90;46.60;;;;;;5087065;28;19924;-66
2022/06/10 10:52:45;;;;;;;;;;;21.90;46.50;;;;;;5093480;28;20379;-66
2022/06/10 10:55:20;;;;;;;;;;;22.00;46.60;;;;;;5082141;28;20002;-68
2022/06/10 10:57:54;;;;;;;;;;;21.90;46.40;;;;;;5078507;28;19928;-68
2022/06/10 11:00:26;;;;;;;;;;;22.00;46.50;;;;;;5081922;28;19981;-67
2022/06/10 11:02:54;;;;;;;;;;;21.90;46.40;;;;;;5092013;28;20373;-65
2022/06/10 11:05:22;;;;;;;;;;;21.90;46.40;;;;;;5084373;28;20393;-66
2022/06/10 11:08:04;;;;;;;;;;;21.90;46.40;;;;;;5082592;28;20023;-65
2022/06/10 11:10:32;;;;;;;;;;;21.90;46.50;;;;;;5079302;28;20269;-63
2022/06/10 11:13:02;;;;;;;;;;;22.00;46.40;;;;;;5095428;28;19953;-63
2022/06/10 11:15:30;;;;;;;;;;;22.00;46.50;;;;;;5087747;28;20027;-64
2022/06/10 11:17:58;;;;;;;;;;;22.00;46.40;;;;;;5089417;28;19947;-68
2022/06/10 11:20:25;;;;;;;;;;;22.00;46.50;;;;;;5086602;28;19924;-59
2022/06/10 11:22:53;;;;;;;;;;;22.00;46.40;;;;;;5088930;28;19935;-62
2022/06/10 11:25:26;;;;;;;;;;;22.00;46.40;;;;;;5084040;28;20022;-62
2022/06/10 11:27:58;;;;;;;;;;;22.00;46.40;;;;;;5077415;28;19932;-60
2022/06/10 11:30:32;;;;;;;;;;;22.00;46.20;;;;;;5100301;28;19947;-60
2022/06/10 11:32:59;;;;;;;;;;;22.00;46.20;;;;;;5095955;28;20505;-59
2022/06/10 11:35:27;;;;;;;;;;;22.00;46.10;;;;;;5087617;28;19925;-59
2022/06/10 11:37:55;;;;;;;;;;;22.00;46.10;;;;;;5108634;28;19928;-59
2022/06/10 11:40:23;;;;;;;;;;;22.00;46.20;;;;;;5092321;28;20007;-59
2022/06/10 11:42:51;;;;;;;;;;;22.00;46.20;;;;;;5090777;28;19930;-65
2022/06/10 11:45:19;;;;;;;;;;;22.00;46.30;;;;;;5086318;28;19931;-64
2022/06/10 11:47:49;;;;;;;;;;;22.00;46.40;;;;;;5088291;28;19928;-64
2022/06/10 11:50:17;;;;;;;;;;;22.00;46.40;;;;;;5084804;28;20068;-66
2022/06/10 11:52:45;;;;;;;;;;;22.10;46.50;;;;;;5089290;28;20424;-64
2022/06/10 11:55:14;;;;;;;;;;;22.10;46.40;;;;;;5080471;28;19924;-64
2022/06/10 12:00:27;;;;;;;;;;;22.10;46.30;;;;;;5089933;28;19940;-64
2022/06/10 12:02:58;;;;;;;;;;;22.10;46.20;;;;;;5091543;28;19981;-64
2022/06/10 12:05:31;;;;;;;;;;;22.10;46.10;;;;;;5087744;28;20403;-64
2022/06/10 12:08:01;;;;;;;;;;;22.10;46.00;;;;;;5085656;28;19978;-64
2022/06/10 12:10:28;;;;;;;;;;;22.10;46.10;;;;;;5083817;28;19960;-63
2022/06/10 12:12:56;;;;;;;;;;;22.10;45.90;;;;;;5103041;28;20006;-65
2022/06/10 12:15:23;;;;;;;;;;;22.10;45.90;;;;;;5086786;28;19990;-64
2022/06/10 12:17:51;;;;;;;;;;;22.10;45.90;;;;;;5084438;28;20546;-63
2022/06/10 12:20:21;;;;;;;;;;;22.10;46.00;;;;;;5081254;28;19994;-65
2022/06/10 12:22:48;;;;;;;;;;;22.20;46.10;;;;;;5087043;28;19931;-65
2022/06/10 12:25:15;;;;;;;;;;;22.20;46.10;;;;;;5086965;28;19925;-65
2022/06/10 12:27:43;;;;;;;;;;;22.20;46.10;;;;;;5091283;28;19954;-64
2022/06/10 12:30:11;;;;;;;;;;;22.20;46.20;;;;;;5090174;28;20416;-64
2022/06/10 12:32:39;;;;;;;;;;;22.20;46.20;;;;;;5087944;28;19928;-65
2022/06/10 12:35:09;;;;;;;;;;;22.20;46.20;;;;;;5084532;28;19930;-59
2022/06/10 12:37:40;;;;;;;;;;;22.20;46.90;;;;;;5086360;28;20033;-64
2022/06/10 12:40:08;;;;;;;;;;;22.20;46.40;;;;;;5085561;28;19924;-65
2022/06/10 12:42:37;;;;;;;;;;;22.20;46.40;;;;;;5084995;28;19924;-65
2022/06/10 12:45:05;;;;;;;;;;;22.20;46.50;;;;;;5100232;27;19932;-64
2022/06/10 12:47:33;;;;;;;;;;;22.20;46.60;;;;;;5085857;28;19932;-64
2022/06/10 12:50:00;;;;;;;;;;;22.20;47.20;;;;;;5091799;28;19932;-64
2022/06/10 12:52:29;;;;;;;;;;;22.30;46.70;;;;;;5088319;28;19985;-65
2022/06/10 12:54:59;;;;;;;;;;;22.30;46.80;;;;;;5100146;28;19946;-64
2022/06/10 12:57:35;;;;;;;;;;;22.30;46.90;;;;;;5090641;28;20339;-65
2022/06/10 13:00:20;;;;;;;;;;;22.30;46.80;;;;;;5084039;28;19934;-64
2022/06/10 13:02:47;;;;;;;;;;;22.30;46.90;;;;;;5087831;28;19999;-63
2022/06/10 13:05:17;;;;;;;;;;;22.30;46.90;;;;;;5094350;28;19932;-63
2022/06/10 13:07:44;;;;;;;;;;;22.30;46.90;;;;;;5088312;28;19932;-64
2022/06/10 13:10:29;;;;;;;;;;;22.30;47.00;;;;;;5102346;28;19928;-64
2022/06/10 13:12:58;;;;;;;;;;;22.30;47.00;;;;;;5088037;28;19996;-65
2022/06/10 13:15:25;;;;;;;;;;;22.30;47.00;;;;;;5086184;28;19985;-63
2022/06/10 13:17:53;;;;;;;;;;;22.30;47.10;;;;;;5085705;28;19931;-64
2022/06/10 13:20:20;;;;;;;;;;;22.30;47.10;;;;;;5081938;28;20025;-64
2022/06/10 13:23:02;;;;;;;;;;;22.30;47.10;;;;;;5084768;28;19924;-64
2022/06/10 13:25:29;;;;;;;;;;;22.30;47.20;;;;;;5086179;28;19937;-63
2022/06/10 13:27:58;;;;;;;;;;;22.30;47.20;;;;;;5087007;28;19934;-64
2022/06/10 13:30:26;;;;;;;;;;;22.30;47.30;;;;;;5081946;28;19935;-65
2022/06/10 13:32:54;;;;;;;;;;;22.30;47.30;;;;;;5084062;28;19953;-68
2022/06/10 13:35:21;;;;;;;;;;;22.30;47.30;;;;;;5082929;28;19928;-66
2022/06/10 13:37:48;;;;;;;;;;;22.40;47.40;;;;;;5091169;28;19928;-64
2022/06/10 13:40:17;;;;;;;;;;;22.40;47.40;;;;;;5086719;28;19923;-64
2022/06/10 13:42:44;;;;;;;;;;;22.40;47.40;;;;;;5083342;28;19928;-65
2022/06/10 13:45:15;;;;;;;;;;;22.40;47.50;;;;;;5089874;28;19928;-63
2022/06/10 13:47:47;;;;;;;;;;;22.40;47.50;;;;;;5079136;28;19924;-65
2022/06/10 13:50:42;;;;;;;;;;;22.40;47.50;;;;;;5088716;28;19978;-65
2022/06/10 13:53:19;;;;;;;;;;;22.40;47.50;;;;;;5096235;28;19930;-63
2022/06/10 13:55:51;;;;;;;;;;;22.40;48.10;;;;;;5085537;28;19924;-64
2022/06/10 13:58:19;;;;;;;;;;;22.40;47.60;;;;;;5082415;28;19931;-64
2022/06/10 14:00:47;;;;;;;;;;;22.40;47.60;;;;;;5080757;28;19929;-63
2022/06/10 14:03:20;;;;;;;;;;;22.50;47.70;;;;;;5085064;28;20308;-63
2022/06/10 14:05:47;;;;;;;;;;;22.50;47.70;;;;;;5085138;28;19925;-65
2022/06/10 14:08:14;;;;;;;;;;;22.50;47.70;;;;;;5086727;28;20395;-66
2022/06/10 14:10:44;;;;;;;;;;;22.40;47.70;;;;;;5085494;28;20381;-64
2022/06/10 14:13:16;;;;;;;;;;;22.40;47.70;;;;;;5087196;28;20358;-64
2022/06/10 14:15:43;;;;;;;;;;;22.50;47.80;;;;;;5089978;28;19924;-63
2022/06/10 14:18:17;;;;;;;;;;;22.50;47.80;;;;;;5082935;28;19934;-64
2022/06/10 14:20:45;;;;;;;;;;;22.50;47.90;;;;;;5086093;28;19924;-66
2022/06/10 14:23:22;;;;;;;;;;;22.50;47.90;;;;;;5082175;28;19936;-65
2022/06/10 14:25:59;;;;;;;;;;;22.50;47.90;;;;;;5085295;28;19931;-66
2022/06/10 14:28:26;;;;;;;;;;;22.50;47.90;;;;;;5087198;28;20324;-66
2022/06/10 14:30:54;;;;;;;;;;;22.60;48.00;;;;;;5082970;28;19928;-67
2022/06/10 14:33:23;;;;;;;;;;;22.50;48.00;;;;;;5083434;28;20137;-66
2022/06/10 14:35:52;;;;;;;;;;;22.50;48.00;;;;;;5088855;28;19956;-67
2022/06/10 14:38:22;;;;;;;;;;;22.50;48.00;;;;;;5084715;28;19924;-66